Time;durP1;ratioP1;P1;durP2;ratioP2;P2;SDS_P1;SDS_P2;PMS_P1;PMS_P2;Temp;Humidity;BMP_temperature;BMP_pressure;BME280_temperature;BME280_humidity;BME280_pressure;Samples;Min_cycle;Max_cycle;Signal;HPM_P1;HPM_P2
2022/09/12 00:00:41;;;;;;;;;;;16.70;99.90;;;;;;2614152;47;19957;-70
2022/09/12 00:03:13;;;;;;;;;;;16.60;99.90;;;;;;2615715;51;19950;-69
2022/09/12 00:05:43;;;;;;;;;;;16.60;99.90;;;;;;2614161;54;20066;-69
2022/09/12 00:08:13;;;;;;;;;;;16.60;99.90;;;;;;2616324;54;19997;-70
2022/09/12 00:10:44;;;;;;;;;;;16.60;99.90;;;;;;2616334;51;19947;-68
2022/09/12 00:13:14;;;;;;;;;;;16.50;99.90;;;;;;2616303;47;19964;-68
2022/09/12 00:15:44;;;;;;;;;;;16.50;99.90;;;;;;2615289;47;19947;-70
2022/09/12 00:18:17;;;;;;;;;;;16.40;99.90;;;;;;2613598;39;20426;-68
2022/09/12 00:20:48;;;;;;;;;;;16.40;99.90;;;;;;2614834;47;19994;-71
2022/09/12 00:23:17;;;;;;;;;;;16.30;99.90;;;;;;2614947;54;20004;-69
2022/09/12 00:25:47;;;;;;;;;;;16.30;99.90;;;;;;2618273;47;20474;-69
2022/09/12 00:28:18;;;;;;;;;;;16.30;99.90;;;;;;2622178;47;19989;-70
2022/09/12 00:30:49;;;;;;;;;;;16.30;99.90;;;;;;2622386;47;19950;-72
2022/09/12 00:33:21;;;;;;;;;;;16.30;99.90;;;;;;2618173;54;20459;-70
2022/09/12 00:35:52;;;;;;;;;;;16.20;99.90;;;;;;2616182;39;20593;-70
2022/09/12 00:38:21;;;;;;;;;;;16.20;99.90;;;;;;2615044;47;20509;-69
2022/09/12 00:40:51;;;;;;;;;;;16.20;99.90;;;;;;2614306;47;19993;-71
2022/09/12 00:43:35;;;;;;;;;;;16.20;99.90;;;;;;2615767;39;20060;-70
2022/09/12 00:46:08;;;;;;;;;;;16.10;99.90;;;;;;2614140;47;19951;-69
2022/09/12 00:48:44;;;;;;;;;;;16.10;99.90;;;;;;2612285;54;19963;-71
2022/09/12 00:51:13;;;;;;;;;;;16.10;99.90;;;;;;2613267;54;20039;-70
2022/09/12 00:53:45;;;;;;;;;;;16.10;99.90;;;;;;2611967;47;19974;-69
2022/09/12 00:56:16;;;;;;;;;;;16.10;99.90;;;;;;2613190;54;19942;-71
2022/09/12 00:58:49;;;;;;;;;;;16.10;99.90;;;;;;2612038;47;19986;-70
2022/09/12 01:01:18;;;;;;;;;;;16.00;99.90;;;;;;2612053;54;20026;-70
2022/09/12 01:03:51;;;;;;;;;;;16.00;99.90;;;;;;2611957;51;19951;-71
2022/09/12 01:06:23;;;;;;;;;;;16.00;99.90;;;;;;2612476;39;20363;-70
2022/09/12 01:08:52;;;;;;;;;;;16.00;99.90;;;;;;2611121;47;19954;-69
2022/09/12 01:11:22;;;;;;;;;;;16.00;99.90;;;;;;2609082;54;20049;-70
2022/09/12 01:13:52;;;;;;;;;;;16.10;99.90;;;;;;2612835;54;19954;-71
2022/09/12 01:16:21;;;;;;;;;;;16.00;99.90;;;;;;2613600;54;20034;-70
2022/09/12 01:19:01;;;;;;;;;;;16.00;99.90;;;;;;2612395;54;19947;-71
2022/09/12 01:21:37;;;;;;;;;;;16.00;99.90;;;;;;2613468;54;20037;-68
2022/09/12 01:24:13;;;;;;;;;;;16.00;99.90;;;;;;2613460;39;20374;-69
2022/09/12 01:26:59;;;;;;;;;;;16.00;99.90;;;;;;2614566;47;20451;-69
2022/09/12 01:29:43;;;;;;;;;;;15.90;99.90;;;;;;2614024;39;20053;-69
2022/09/12 01:32:19;;;;;;;;;;;15.90;99.90;;;;;;2609788;54;20024;-65
2022/09/12 01:34:53;;;;;;;;;;;15.90;99.90;;;;;;2613215;51;19946;-65
2022/09/12 01:37:27;;;;;;;;;;;15.90;99.90;;;;;;2614317;54;20081;-65
2022/09/12 01:40:01;;;;;;;;;;;15.80;99.90;;;;;;2614305;47;19962;-65
2022/09/12 01:42:34;;;;;;;;;;;15.90;99.90;;;;;;2614802;47;19970;-64
2022/09/12 01:45:08;;;;;;;;;;;15.90;99.90;;;;;;2614137;54;19943;-65
2022/09/12 01:47:42;;;;;;;;;;;15.90;99.90;;;;;;2613890;54;20029;-65
2022/09/12 01:50:14;;;;;;;;;;;15.80;99.90;;;;;;2614667;47;20503;-65
2022/09/12 01:52:46;;;;;;;;;;;15.80;99.90;;;;;;2616255;54;19994;-65
2022/09/12 01:55:19;;;;;;;;;;;15.90;99.90;;;;;;2612720;47;19979;-65
2022/09/12 01:57:51;;;;;;;;;;;15.80;99.90;;;;;;2614628;54;19958;-65
2022/09/12 02:00:20;;;;;;;;;;;15.80;99.90;;;;;;2613502;54;19992;-65
2022/09/12 02:02:55;;;;;;;;;;;15.80;99.90;;;;;;2615054;54;20002;-66
2022/09/12 02:05:29;;;;;;;;;;;15.80;99.90;;;;;;2612384;54;20521;-65
2022/09/12 02:08:03;;;;;;;;;;;15.80;99.90;;;;;;2615737;54;19985;-65
2022/09/12 02:10:33;;;;;;;;;;;15.80;99.90;;;;;;2615560;31;20542;-65
2022/09/12 02:13:06;;;;;;;;;;;15.80;99.90;;;;;;2613531;31;20478;-65
2022/09/12 02:15:36;;;;;;;;;;;15.80;99.90;;;;;;2612958;51;20676;-65
2022/09/12 02:18:09;;;;;;;;;;;15.80;99.90;;;;;;2612958;54;19962;-65
2022/09/12 02:20:40;;;;;;;;;;;15.70;99.90;;;;;;2615281;39;20559;-65
2022/09/12 02:23:20;;;;;;;;;;;15.70;99.90;;;;;;2613972;47;20050;-65
2022/09/12 02:25:53;;;;;;;;;;;15.80;99.90;;;;;;2613941;54;19970;-64
2022/09/12 02:28:24;;;;;;;;;;;15.60;99.90;;;;;;2613506;39;20447;-65
2022/09/12 02:30:57;;;;;;;;;;;15.70;99.90;;;;;;2612266;54;20049;-65
2022/09/12 02:33:34;;;;;;;;;;;15.60;99.90;;;;;;2612691;47;19950;-64
2022/09/12 02:36:08;;;;;;;;;;;15.60;99.90;;;;;;2611932;54;19986;-66
2022/09/12 02:38:43;;;;;;;;;;;15.60;99.90;;;;;;2617618;54;20487;-65
2022/09/12 02:41:13;;;;;;;;;;;15.60;99.90;;;;;;2612971;51;19938;-65
2022/09/12 02:43:43;;;;;;;;;;;15.60;99.90;;;;;;2614030;54;19994;-65
2022/09/12 02:46:16;;;;;;;;;;;15.70;99.90;;;;;;2613304;54;20030;-65
2022/09/12 02:48:48;;;;;;;;;;;15.60;99.90;;;;;;2613979;54;19974;-65
2022/09/12 02:51:18;;;;;;;;;;;15.60;99.90;;;;;;2613082;54;20061;-66
2022/09/12 02:53:52;;;;;;;;;;;15.60;99.90;;;;;;2612993;54;19953;-65
2022/09/12 02:56:25;;;;;;;;;;;15.50;99.90;;;;;;2612384;47;19966;-65
2022/09/12 02:58:55;;;;;;;;;;;15.60;99.90;;;;;;2614525;54;20481;-66
2022/09/12 03:01:30;;;;;;;;;;;15.60;99.90;;;;;;2614824;31;20695;-64
2022/09/12 03:04:15;;;;;;;;;;;15.50;99.90;;;;;;2613037;54;20035;-65
2022/09/12 03:06:51;;;;;;;;;;;15.50;99.90;;;;;;2615586;54;19950;-65
2022/09/12 03:09:22;;;;;;;;;;;15.40;99.90;;;;;;2612979;54;19957;-65
2022/09/12 03:12:04;;;;;;;;;;;15.40;99.90;;;;;;2614219;54;20081;-65
2022/09/12 03:15:00;;;;;;;;;;;15.40;99.90;;;;;;2613246;54;20001;-65
2022/09/12 03:17:34;;;;;;;;;;;15.40;99.90;;;;;;2613782;47;19946;-65
2022/09/12 03:20:11;;;;;;;;;;;15.40;99.90;;;;;;2613545;54;20034;-65
2022/09/12 03:22:44;;;;;;;;;;;15.40;99.90;;;;;;2614149;47;19977;-65
2022/09/12 03:25:20;;;;;;;;;;;15.40;99.90;;;;;;2613660;54;19953;-65
2022/09/12 03:27:54;;;;;;;;;;;15.30;99.90;;;;;;2614307;31;20411;-67
2022/09/12 03:30:24;;;;;;;;;;;15.30;99.90;;;;;;2613584;54;19975;-64
2022/09/12 03:32:54;;;;;;;;;;;15.30;99.90;;;;;;2613828;47;19950;-64
2022/09/12 03:35:26;;;;;;;;;;;15.30;99.90;;;;;;2613662;54;20640;-66
2022/09/12 03:37:55;;;;;;;;;;;15.30;99.90;;;;;;2613928;54;19954;-64
2022/09/12 03:40:25;;;;;;;;;;;15.20;99.90;;;;;;2617195;47;19950;-65
2022/09/12 03:42:54;;;;;;;;;;;15.20;99.90;;;;;;2618979;54;19954;-64
2022/09/12 03:45:24;;;;;;;;;;;15.20;99.90;;;;;;2619089;54;20493;-64
2022/09/12 03:47:53;;;;;;;;;;;15.20;99.90;;;;;;2618288;47;20447;-64
2022/09/12 03:50:25;;;;;;;;;;;15.20;99.90;;;;;;2613791;54;20001;-64
2022/09/12 03:52:55;;;;;;;;;;;15.20;99.90;;;;;;2613170;52;20033;-65
2022/09/12 03:55:25;;;;;;;;;;;15.10;99.90;;;;;;2612847;54;20854;-64
2022/09/12 03:57:55;;;;;;;;;;;15.20;99.90;;;;;;2613622;39;20376;-64
2022/09/12 04:00:24;;;;;;;;;;;15.20;99.90;;;;;;2612834;54;19950;-64
2022/09/12 04:02:57;;;;;;;;;;;15.10;99.90;;;;;;2612900;54;19969;-66
2022/09/12 04:05:29;;;;;;;;;;;15.10;99.90;;;;;;2609300;54;20499;-64
2022/09/12 04:07:59;;;;;;;;;;;15.10;99.90;;;;;;2612334;47;20042;-64
2022/09/12 04:10:28;;;;;;;;;;;15.10;99.90;;;;;;2613905;51;19945;-63
2022/09/12 04:12:58;;;;;;;;;;;15.10;99.90;;;;;;2613781;54;19985;-65
2022/09/12 04:15:27;;;;;;;;;;;15.10;99.90;;;;;;2615429;47;20001;-65
2022/09/12 04:17:57;;;;;;;;;;;15.00;99.90;;;;;;2614306;54;19966;-64
2022/09/12 04:20:34;;;;;;;;;;;15.10;99.90;;;;;;2615688;54;19954;-64
2022/09/12 04:23:04;;;;;;;;;;;15.00;99.90;;;;;;2614716;54;19947;-66
2022/09/12 04:25:33;;;;;;;;;;;15.00;99.90;;;;;;2614021;47;19962;-64
2022/09/12 04:28:03;;;;;;;;;;;15.00;99.90;;;;;;2614235;54;19942;-65
2022/09/12 04:30:33;;;;;;;;;;;15.00;99.90;;;;;;2614742;51;20038;-65
2022/09/12 04:33:02;;;;;;;;;;;14.90;99.90;;;;;;2613810;39;20366;-65
2022/09/12 04:35:40;;;;;;;;;;;15.00;99.90;;;;;;2613060;54;19956;-66
2022/09/12 04:38:10;;;;;;;;;;;14.90;99.90;;;;;;2614943;54;21666;-65
2022/09/12 04:40:39;;;;;;;;;;;14.90;99.90;;;;;;2613823;47;19947;-65
2022/09/12 04:43:08;;;;;;;;;;;14.90;99.90;;;;;;2612668;51;20062;-64
2022/09/12 04:45:42;;;;;;;;;;;15.00;99.90;;;;;;2614838;47;19945;-66
2022/09/12 04:48:12;;;;;;;;;;;14.90;99.90;;;;;;2614135;54;19954;-64
2022/09/12 04:50:44;;;;;;;;;;;15.00;99.90;;;;;;2616932;47;19950;-65
2022/09/12 04:53:13;;;;;;;;;;;15.30;99.90;;;;;;2619674;54;19982;-64
2022/09/12 04:55:43;;;;;;;;;;;15.00;99.90;;;;;;2614763;54;20029;-64
2022/09/12 04:58:12;;;;;;;;;;;15.00;99.90;;;;;;2614649;51;19942;-65
2022/09/12 05:00:42;;;;;;;;;;;15.00;99.90;;;;;;2615847;39;20350;-63
2022/09/12 05:03:11;;;;;;;;;;;15.00;99.90;;;;;;2615047;47;19939;-66
2022/09/12 05:05:44;;;;;;;;;;;15.00;99.90;;;;;;2615946;39;20379;-65
2022/09/12 05:08:13;;;;;;;;;;;14.90;99.90;;;;;;2616418;54;19974;-64
2022/09/12 05:10:42;;;;;;;;;;;14.90;99.90;;;;;;2614593;54;19977;-63
2022/09/12 05:13:12;;;;;;;;;;;14.90;99.90;;;;;;2615340;54;19965;-64
2022/09/12 05:15:41;;;;;;;;;;;14.90;99.90;;;;;;2615059;54;19950;-63
2022/09/12 05:18:11;;;;;;;;;;;14.90;99.90;;;;;;2615983;54;19975;-64
2022/09/12 05:20:40;;;;;;;;;;;14.90;99.90;;;;;;2615511;54;19997;-64
2022/09/12 05:23:12;;;;;;;;;;;15.00;99.90;;;;;;2614251;54;20555;-64
2022/09/12 05:25:49;;;;;;;;;;;14.90;99.90;;;;;;2613240;54;20015;-64
2022/09/12 05:28:18;;;;;;;;;;;14.90;99.90;;;;;;2614492;47;20006;-64
2022/09/12 05:30:48;;;;;;;;;;;14.90;99.90;;;;;;2617026;50;19950;-63
2022/09/12 05:33:18;;;;;;;;;;;14.90;99.90;;;;;;2615385;54;19938;-64
2022/09/12 05:35:53;;;;;;;;;;;15.00;99.90;;;;;;2614847;47;20313;-63
2022/09/12 05:38:27;;;;;;;;;;;15.00;99.90;;;;;;2615437;54;19946;-63
2022/09/12 05:41:05;;;;;;;;;;;15.00;99.90;;;;;;2615002;54;19994;-63
2022/09/12 05:43:34;;;;;;;;;;;15.00;99.90;;;;;;2614723;47;19958;-66
2022/09/12 05:46:08;;;;;;;;;;;15.10;99.90;;;;;;2614545;47;19950;-64
2022/09/12 05:48:38;;;;;;;;;;;15.10;99.90;;;;;;2614078;39;21034;-64
2022/09/12 05:51:09;;;;;;;;;;;15.10;99.90;;;;;;2614391;47;19950;-63
2022/09/12 05:53:42;;;;;;;;;;;15.20;99.90;;;;;;2615081;47;19949;-64
2022/09/12 05:56:13;;;;;;;;;;;15.20;99.90;;;;;;2613339;47;19998;-66
2022/09/12 05:58:43;;;;;;;;;;;15.20;99.90;;;;;;2614488;47;19946;-65
2022/09/12 06:01:14;;;;;;;;;;;14.80;99.90;;;;;;2614996;54;20062;-63
2022/09/12 06:03:44;;;;;;;;;;;15.30;99.90;;;;;;2615115;47;19950;-63
2022/09/12 06:06:14;;;;;;;;;;;15.30;99.90;;;;;;2615966;54;19954;-65
2022/09/12 06:08:47;;;;;;;;;;;15.40;99.90;;;;;;2616090;47;19947;-65
2022/09/12 06:11:17;;;;;;;;;;;15.40;99.90;;;;;;2615245;47;19979;-64
2022/09/12 06:13:47;;;;;;;;;;;15.40;99.90;;;;;;2620328;47;20046;-64
2022/09/12 06:16:18;;;;;;;;;;;15.50;99.90;;;;;;2618041;46;19954;-64
2022/09/12 06:18:48;;;;;;;;;;;15.60;99.90;;;;;;2616511;54;20293;-63
2022/09/12 06:21:18;;;;;;;;;;;15.70;99.90;;;;;;2619502;54;19996;-64
2022/09/12 06:23:50;;;;;;;;;;;15.70;99.90;;;;;;2617117;50;19954;-61
2022/09/12 06:26:22;;;;;;;;;;;15.80;99.90;;;;;;2615144;54;20001;-61
2022/09/12 06:28:52;;;;;;;;;;;15.90;99.90;;;;;;2615537;54;19953;-62
2022/09/12 06:31:23;;;;;;;;;;;16.00;99.90;;;;;;2614657;39;20352;-62
2022/09/12 06:33:54;;;;;;;;;;;16.10;99.90;;;;;;2614485;47;19951;-60
2022/09/12 06:36:25;;;;;;;;;;;16.20;99.90;;;;;;2613979;50;19958;-63
2022/09/12 06:39:01;;;;;;;;;;;16.30;99.90;;;;;;2615736;54;19993;-63
2022/09/12 06:41:31;;;;;;;;;;;16.30;99.90;;;;;;2614298;47;19987;-61
2022/09/12 06:44:01;;;;;;;;;;;16.40;99.90;;;;;;2613367;54;20033;-61
2022/09/12 06:46:31;;;;;;;;;;;16.50;99.90;;;;;;2613769;54;19970;-62
2022/09/12 06:49:02;;;;;;;;;;;16.50;99.90;;;;;;2613820;31;20479;-61
2022/09/12 06:51:31;;;;;;;;;;;16.60;99.90;;;;;;2614706;54;19971;-64
2022/09/12 06:54:04;;;;;;;;;;;16.70;99.90;;;;;;2609932;54;20019;-61
2022/09/12 06:56:33;;;;;;;;;;;16.80;99.90;;;;;;2611309;47;19938;-61
2022/09/12 06:59:03;;;;;;;;;;;16.90;99.90;;;;;;2613685;54;20041;-60
2022/09/12 07:01:33;;;;;;;;;;;17.00;99.90;;;;;;2613898;51;19977;-60
2022/09/12 07:04:04;;;;;;;;;;;17.10;99.90;;;;;;2613018;54;19951;-62
2022/09/12 07:06:37;;;;;;;;;;;16.70;99.90;;;;;;2613310;54;19950;-59
2022/09/12 07:09:09;;;;;;;;;;;17.30;99.90;;;;;;2612130;54;20502;-60
2022/09/12 07:11:40;;;;;;;;;;;17.30;99.90;;;;;;2612972;47;20467;-59
2022/09/12 07:14:11;;;;;;;;;;;17.40;99.90;;;;;;2613822;47;19973;-61
2022/09/12 07:16:41;;;;;;;;;;;17.50;99.90;;;;;;2613968;49;19946;-59
2022/09/12 07:19:11;;;;;;;;;;;17.50;99.90;;;;;;2613677;39;20282;-61
2022/09/12 07:21:41;;;;;;;;;;;17.60;99.90;;;;;;2614179;47;19942;-60
2022/09/12 07:24:13;;;;;;;;;;;17.70;99.90;;;;;;2612323;51;19954;-62
2022/09/12 07:26:42;;;;;;;;;;;17.70;99.90;;;;;;2613847;54;19954;-63
2022/09/12 07:29:15;;;;;;;;;;;17.70;99.90;;;;;;2612590;54;19962;-61
2022/09/12 07:32:05;;;;;;;;;;;17.80;99.90;;;;;;2613497;39;20278;-59
2022/09/12 07:34:34;;;;;;;;;;;17.80;99.90;;;;;;2615150;47;19994;-59
2022/09/12 07:37:04;;;;;;;;;;;17.90;99.90;;;;;;2613427;54;20034;-59
2022/09/12 07:39:36;;;;;;;;;;;18.00;99.90;;;;;;2611886;47;19994;-59
2022/09/12 07:42:06;;;;;;;;;;;18.00;99.90;;;;;;2613531;47;19954;-59
2022/09/12 07:44:36;;;;;;;;;;;18.00;99.90;;;;;;2615842;31;20489;-58
2022/09/12 07:47:05;;;;;;;;;;;18.00;99.90;;;;;;2614162;54;20034;-58
2022/09/12 07:49:35;;;;;;;;;;;18.10;99.90;;;;;;2619851;54;19994;-59
2022/09/12 07:52:04;;;;;;;;;;;18.10;99.90;;;;;;2616097;39;20334;-58
2022/09/12 07:54:36;;;;;;;;;;;18.10;99.90;;;;;;2614150;54;19950;-58
2022/09/12 07:57:06;;;;;;;;;;;18.20;99.90;;;;;;2614521;31;20455;-58
2022/09/12 07:59:41;;;;;;;;;;;18.20;99.90;;;;;;2613972;47;19998;-58
2022/09/12 08:02:21;;;;;;;;;;;18.30;99.90;;;;;;2615597;47;20042;-65
2022/09/12 08:04:51;;;;;;;;;;;18.40;99.90;;;;;;2617471;39;20215;-72
2022/09/12 08:07:21;;;;;;;;;;;18.40;99.90;;;;;;2615179;54;19958;-71
2022/09/12 08:09:53;;;;;;;;;;;18.50;99.90;;;;;;2614853;39;20357;-71
2022/09/12 08:12:23;;;;;;;;;;;18.50;99.90;;;;;;2615863;31;20458;-72
2022/09/12 08:14:52;;;;;;;;;;;18.60;99.90;;;;;;2614660;54;19946;-71
2022/09/12 08:17:22;;;;;;;;;;;17.70;99.90;;;;;;2614719;31;20479;-71
2022/09/12 08:19:51;;;;;;;;;;;18.70;99.90;;;;;;2615141;54;19943;-71
2022/09/12 08:22:21;;;;;;;;;;;18.70;99.90;;;;;;2614658;47;20074;-71
2022/09/12 08:24:54;;;;;;;;;;;18.80;99.90;;;;;;2616060;54;19946;-72
2022/09/12 08:27:23;;;;;;;;;;;18.80;99.90;;;;;;2617565;54;19983;-71
2022/09/12 08:29:54;;;;;;;;;;;18.90;99.90;;;;;;2617797;54;19994;-70
2022/09/12 08:32:23;;;;;;;;;;;19.00;99.90;;;;;;2616006;54;19942;-70
2022/09/12 08:34:53;;;;;;;;;;;19.10;99.90;;;;;;2615814;47;19946;-71
2022/09/12 08:37:23;;;;;;;;;;;19.10;99.90;;;;;;2614440;54;19946;-71
2022/09/12 08:39:57;;;;;;;;;;;19.20;99.90;;;;;;2614816;54;19947;-71
2022/09/12 08:42:31;;;;;;;;;;;19.40;99.90;;;;;;2614278;54;19954;-71
2022/09/12 08:45:06;;;;;;;;;;;19.40;99.90;;;;;;2616019;46;19954;-72
2022/09/12 08:47:38;;;;;;;;;;;19.50;99.90;;;;;;2616900;54;19954;-72
2022/09/12 08:50:14;;;;;;;;;;;19.70;99.90;;;;;;2617245;47;19954;-73
2022/09/12 08:52:48;;;;;;;;;;;19.80;99.90;;;;;;2616936;47;19954;-70
2022/09/12 08:55:28;;;;;;;;;;;19.90;99.90;;;;;;2616618;46;21123;-72
2022/09/12 08:58:02;;;;;;;;;;;20.00;99.90;;;;;;2617554;47;19942;-72
2022/09/12 09:00:39;;;;;;;;;;;20.00;99.90;;;;;;2617604;54;19951;-72
2022/09/12 09:03:25;;;;;;;;;;;20.10;99.90;;;;;;2618898;47;21303;-72
2022/09/12 09:06:01;;;;;;;;;;;20.20;99.90;;;;;;2618454;47;19946;-72
2022/09/12 09:11:50;;;;;;;;;;;20.30;99.90;;;;;;2618666;47;19943;-71
2022/09/12 09:17:33;;;;;;;;;;;20.40;99.90;;;;;;2619195;46;19950;-71
2022/09/12 09:20:10;;;;;;;;;;;20.60;99.90;;;;;;2618778;39;20333;-72
2022/09/12 09:22:52;;;;;;;;;;;20.70;99.90;;;;;;2618391;47;19950;-71
2022/09/12 09:25:36;;;;;;;;;;;20.80;99.90;;;;;;2619242;47;19951;-71
2022/09/12 09:28:12;;;;;;;;;;;20.80;99.90;;;;;;2615744;54;19954;-71
2022/09/12 09:30:43;;;;;;;;;;;20.80;99.90;;;;;;2614458;54;19973;-72
2022/09/12 09:33:23;;;;;;;;;;;20.80;99.90;;;;;;2615919;47;19998;-72
2022/09/12 09:35:58;;;;;;;;;;;20.90;99.90;;;;;;2615368;54;19945;-71
2022/09/12 09:38:31;;;;;;;;;;;21.10;99.90;;;;;;2616455;47;19950;-71
2022/09/12 09:41:07;;;;;;;;;;;21.20;99.90;;;;;;2615061;54;19990;-71
2022/09/12 09:43:39;;;;;;;;;;;21.10;99.90;;;;;;2614347;47;20449;-72
2022/09/12 09:46:10;;;;;;;;;;;21.20;99.90;;;;;;2617142;47;20476;-73
2022/09/12 09:48:42;;;;;;;;;;;21.30;99.90;;;;;;2616686;39;20580;-73
2022/09/12 09:51:12;;;;;;;;;;;21.40;99.90;;;;;;2616464;54;19950;-68
2022/09/12 09:53:45;;;;;;;;;;;21.50;99.90;;;;;;2614967;46;19977;-72
2022/09/12 09:56:28;;;;;;;;;;;21.50;99.90;;;;;;2614854;54;19954;-72
2022/09/12 09:59:09;;;;;;;;;;;21.60;99.90;;;;;;2616258;54;19969;-70
2022/09/12 10:01:39;;;;;;;;;;;21.60;99.90;;;;;;2619537;39;20475;-73
2022/09/12 10:04:18;;;;;;;;;;;21.70;99.90;;;;;;2618282;54;19970;-72
2022/09/12 10:06:48;;;;;;;;;;;21.70;99.90;;;;;;2620107;46;19954;-77
2022/09/12 10:09:20;;;;;;;;;;;21.70;99.90;;;;;;2618088;47;19950;-72
2022/09/12 10:11:50;;;;;;;;;;;21.70;99.90;;;;;;2616938;47;19970;-73
2022/09/12 10:14:33;;;;;;;;;;;21.80;99.90;;;;;;2618527;54;19954;-71
2022/09/12 10:17:03;;;;;;;;;;;21.90;99.90;;;;;;2619443;54;20010;-70
2022/09/12 10:19:37;;;;;;;;;;;21.90;99.90;;;;;;2621392;54;19950;-72
2022/09/12 10:22:07;;;;;;;;;;;22.00;99.90;;;;;;2620576;54;19994;-71
2022/09/12 10:24:38;;;;;;;;;;;22.00;99.90;;;;;;2617739;54;19946;-70
2022/09/12 10:27:09;;;;;;;;;;;22.10;99.90;;;;;;2617846;54;19953;-72
2022/09/12 10:29:47;;;;;;;;;;;22.20;99.90;;;;;;2619576;54;19957;-72
2022/09/12 10:32:23;;;;;;;;;;;22.30;99.90;;;;;;2619631;47;19950;-72
2022/09/12 10:35:00;;;;;;;;;;;22.40;99.90;;;;;;2619937;54;19983;-71
2022/09/12 10:37:32;;;;;;;;;;;22.50;99.90;;;;;;2619515;47;20097;-71
2022/09/12 10:40:02;;;;;;;;;;;22.50;99.90;;;;;;2624484;51;20886;-72
2022/09/12 10:42:47;;;;;;;;;;;22.60;99.90;;;;;;2622865;54;19946;-71
2022/09/12 10:45:27;;;;;;;;;;;22.60;99.90;;;;;;2619688;54;19942;-70
2022/09/12 10:47:58;;;;;;;;;;;22.70;99.90;;;;;;2618613;54;19946;-71
2022/09/12 10:50:33;;;;;;;;;;;22.80;99.90;;;;;;2616942;54;19954;-70
2022/09/12 10:53:15;;;;;;;;;;;23.00;99.90;;;;;;2617415;54;19950;-71
2022/09/12 10:55:54;;;;;;;;;;;23.10;99.90;;;;;;2618825;54;19939;-70
2022/09/12 10:58:33;;;;;;;;;;;23.30;99.90;;;;;;2619151;54;19986;-71
2022/09/12 11:01:09;;;;;;;;;;;23.40;99.90;;;;;;2618446;54;20489;-71
2022/09/12 11:03:50;;;;;;;;;;;23.60;99.90;;;;;;2616729;47;20607;-72
2022/09/12 11:06:22;;;;;;;;;;;23.60;99.90;;;;;;2618447;39;20379;-71
2022/09/12 11:08:59;;;;;;;;;;;23.70;99.90;;;;;;2617532;54;19954;-70
2022/09/12 11:11:38;;;;;;;;;;;23.70;99.90;;;;;;2617119;54;20086;-71
2022/09/12 11:14:18;;;;;;;;;;;23.80;99.90;;;;;;2616046;47;20054;-70
2022/09/12 11:16:56;;;;;;;;;;;23.90;99.90;;;;;;2617767;54;19954;-71
2022/09/12 11:19:31;;;;;;;;;;;24.00;99.90;;;;;;2617942;47;20015;-70
2022/09/12 11:22:08;;;;;;;;;;;24.10;99.90;;;;;;2619029;39;20392;-70
2022/09/12 11:24:46;;;;;;;;;;;24.20;99.90;;;;;;2616398;54;19953;-71
2022/09/12 11:27:32;;;;;;;;;;;24.30;99.90;;;;;;2616311;47;20515;-70
2022/09/12 11:30:05;;;;;;;;;;;24.50;99.90;;;;;;2618805;47;19953;-73
2022/09/12 11:32:44;;;;;;;;;;;24.60;99.90;;;;;;2617740;47;19967;-72
2022/09/12 11:35:19;;;;;;;;;;;24.70;99.90;;;;;;2618709;47;19954;-70
2022/09/12 11:37:57;;;;;;;;;;;24.70;99.90;;;;;;2619453;54;19986;-70
2022/09/12 11:40:30;;;;;;;;;;;24.80;99.90;;;;;;2617935;54;20430;-71
2022/09/12 11:43:02;;;;;;;;;;;24.90;99.90;;;;;;2616130;54;19998;-71
2022/09/12 11:45:36;;;;;;;;;;;24.90;99.90;;;;;;2614672;54;21753;-69
2022/09/12 11:48:12;;;;;;;;;;;24.90;99.90;;;;;;2612479;54;19974;-72
2022/09/12 11:50:41;;;;;;;;;;;25.00;99.90;;;;;;2615863;54;20027;-71
2022/09/12 11:53:16;;;;;;;;;;;25.00;99.90;;;;;;2616299;39;20369;-72
2022/09/12 11:55:50;;;;;;;;;;;25.10;99.90;;;;;;2615443;39;20381;-70
2022/09/12 11:58:21;;;;;;;;;;;25.20;99.90;;;;;;2615324;54;19946;-71
2022/09/12 12:00:53;;;;;;;;;;;25.30;99.90;;;;;;2615571;31;20441;-72
2022/09/12 12:03:29;;;;;;;;;;;25.40;99.90;;;;;;2615533;54;19946;-71
2022/09/12 12:06:03;;;;;;;;;;;25.50;99.90;;;;;;2617682;51;20067;-72
2022/09/12 12:08:33;;;;;;;;;;;25.60;99.90;;;;;;2620940;54;19951;-71
2022/09/12 12:11:03;;;;;;;;;;;25.70;99.90;;;;;;2619670;54;19951;-69
2022/09/12 12:13:34;;;;;;;;;;;25.80;99.90;;;;;;2619259;54;19951;-72
2022/09/12 12:16:06;;;;;;;;;;;25.90;99.90;;;;;;2617006;54;20029;-71
2022/09/12 12:18:40;;;;;;;;;;;26.10;99.90;;;;;;2617813;39;20467;-71
2022/09/12 12:21:20;;;;;;;;;;;26.00;99.90;;;;;;2617266;39;20543;-72
2022/09/12 12:24:04;;;;;;;;;;;26.10;99.90;;;;;;2616830;47;19986;-72
2022/09/12 12:26:44;;;;;;;;;;;26.30;99.90;;;;;;2616655;54;19951;-72
2022/09/12 12:29:14;;;;;;;;;;;26.50;99.90;;;;;;2615633;54;19958;-71
2022/09/12 12:32:00;;;;;;;;;;;26.60;99.90;;;;;;2616362;47;20433;-70
2022/09/12 12:34:34;;;;;;;;;;;26.70;99.90;;;;;;2617453;54;19946;-70
2022/09/12 12:37:33;;;;;;;;;;;26.80;99.90;;;;;;2618620;54;20490;-71
2022/09/12 12:40:09;;;;;;;;;;;26.90;99.90;;;;;;2616181;54;19950;-71
2022/09/12 12:43:03;;;;;;;;;;;27.10;99.90;;;;;;2616437;54;19991;-71
2022/09/12 12:45:48;;;;;;;;;;;27.10;99.90;;;;;;2619988;39;20370;-72
2022/09/12 12:48:19;;;;;;;;;;;27.20;99.90;;;;;;2616380;47;20474;-71
2022/09/12 12:50:51;;;;;;;;;;;27.30;99.90;;;;;;2618172;47;19946;-71
2022/09/12 12:53:23;;;;;;;;;;;27.30;99.90;;;;;;2620510;54;19950;-71
2022/09/12 12:55:53;;;;;;;;;;;27.30;99.90;;;;;;2620436;54;20453;-72
2022/09/12 12:58:29;;;;;;;;;;;27.30;99.90;;;;;;2617235;54;19990;-71
2022/09/12 13:01:06;;;;;;;;;;;27.30;99.90;;;;;;2616985;39;20428;-72
2022/09/12 13:03:35;;;;;;;;;;;27.50;99.90;;;;;;2616179;54;19959;-71
2022/09/12 13:06:09;;;;;;;;;;;27.50;99.90;;;;;;2617024;54;19958;-70
2022/09/12 13:08:41;;;;;;;;;;;27.50;99.90;;;;;;2615978;47;20501;-71
2022/09/12 13:11:13;;;;;;;;;;;27.30;99.90;;;;;;2617690;54;19958;-70
2022/09/12 13:13:51;;;;;;;;;;;27.40;99.90;;;;;;2617430;39;20388;-70
2022/09/12 13:16:30;;;;;;;;;;;27.50;99.90;;;;;;2615508;47;20002;-70
2022/09/12 13:19:04;;;;;;;;;;;27.60;99.90;;;;;;2617196;54;19953;-71
2022/09/12 13:21:37;;;;;;;;;;;27.70;99.90;;;;;;2619164;49;19950;-70
2022/09/12 13:24:07;;;;;;;;;;;27.80;99.90;;;;;;2614385;54;19978;-71
2022/09/12 13:26:42;;;;;;;;;;;27.90;99.90;;;;;;2614965;54;20442;-71
2022/09/12 13:29:13;;;;;;;;;;;27.90;99.90;;;;;;2616195;46;19990;-70
2022/09/12 13:31:42;;;;;;;;;;;27.80;99.90;;;;;;2619269;47;19979;-71
2022/09/12 13:34:18;;;;;;;;;;;27.90;99.90;;;;;;2615559;47;19961;-71
2022/09/12 13:36:58;;;;;;;;;;;28.10;99.90;;;;;;2617251;54;19958;-71
2022/09/12 13:39:29;;;;;;;;;;;28.20;99.90;;;;;;2616698;47;20480;-71
2022/09/12 13:42:13;;;;;;;;;;;28.40;99.90;;;;;;2616227;54;19954;-72
2022/09/12 13:44:45;;;;;;;;;;;28.50;99.90;;;;;;2613520;54;19953;-71
2022/09/12 13:47:16;;;;;;;;;;;28.50;99.90;;;;;;2615500;47;19984;-71
2022/09/12 13:49:47;;;;;;;;;;;28.50;99.90;;;;;;2617212;47;20061;-67
2022/09/12 13:52:21;;;;;;;;;;;28.40;99.90;;;;;;2612493;54;19998;-68
2022/09/12 13:54:52;;;;;;;;;;;28.60;99.90;;;;;;2613563;54;19971;-68
2022/09/12 13:57:30;;;;;;;;;;;28.90;99.90;;;;;;2615203;47;20021;-68
2022/09/12 14:00:00;;;;;;;;;;;29.00;99.90;;;;;;2615869;54;20030;-67
2022/09/12 14:02:30;;;;;;;;;;;29.20;99.90;;;;;;2615074;54;20453;-67
2022/09/12 14:05:07;;;;;;;;;;;29.30;99.90;;;;;;2614861;54;19953;-68
2022/09/12 14:07:54;;;;;;;;;;;29.40;99.90;;;;;;2615609;54;20030;-68
2022/09/12 14:10:33;;;;;;;;;;;29.50;99.90;;;;;;2614804;54;20050;-68
2022/09/12 14:13:04;;;;;;;;;;;29.60;99.90;;;;;;2614034;54;19968;-70
2022/09/12 14:15:35;;;;;;;;;;;29.70;99.90;;;;;;2614148;54;19946;-69
2022/09/12 14:18:07;;;;;;;;;;;29.80;99.90;;;;;;2615908;54;19946;-71
2022/09/12 14:20:38;;;;;;;;;;;29.90;99.90;;;;;;2616232;54;19994;-71
2022/09/12 14:23:26;;;;;;;;;;;30.10;99.90;;;;;;2617254;54;19946;-71
2022/09/12 14:25:59;;;;;;;;;;;30.20;99.90;;;;;;2614929;54;19994;-70
2022/09/12 14:28:30;;;;;;;;;;;30.30;99.90;;;;;;2615717;39;20201;-70
2022/09/12 14:31:00;;;;;;;;;;;30.30;99.90;;;;;;2616209;54;19953;-71
2022/09/12 14:33:30;;;;;;;;;;;30.30;99.90;;;;;;2618879;47;19948;-71
2022/09/12 14:36:10;;;;;;;;;;;30.30;99.90;;;;;;2617152;54;19999;-68
2022/09/12 14:38:42;;;;;;;;;;;30.20;99.90;;;;;;2615691;47;19986;-70
2022/09/12 14:41:16;;;;;;;;;;;30.50;99.90;;;;;;2615412;54;19977;-70
2022/09/12 14:43:47;;;;;;;;;;;31.20;99.90;;;;;;2616043;54;19946;-71
2022/09/12 14:46:18;;;;;;;;;;;32.00;99.90;;;;;;2617453;39;20018;-70
2022/09/12 14:48:50;;;;;;;;;;;32.90;99.90;;;;;;2617633;54;19946;-71
2022/09/12 14:51:26;;;;;;;;;;;33.50;99.90;;;;;;2616483;54;19990;-70
2022/09/12 14:53:59;;;;;;;;;;;34.20;99.90;;;;;;2615632;54;20453;-69
2022/09/12 14:56:42;;;;;;;;;;;34.10;99.90;;;;;;2615715;54;20519;-71